Time;durP1;ratioP1;P1;durP2;ratioP2;P2;SDS_P1;SDS_P2;PMS_P1;PMS_P2;Temp;Humidity;BMP_temperature;BMP_pressure;BME280_temperature;BME280_humidity;BME280_pressure;Samples;Min_cycle;Max_cycle;Signal;HPM_P1;HPM_P2
2021/12/17 00:00:18;;;;;;;30.70;15.82;;;;;;;7.47;95.69;103909.41;1985506;29;43668;-67
2021/12/17 00:01:36;;;;;;;26.08;14.68;;;;;;;7.47;95.46;103909.41;1985568;29;44486;-69
2021/12/17 00:03:09;;;;;;;29.83;15.70;;;;;;;7.47;95.62;103909.41;1985821;29;45987;-67
2021/12/17 00:04:24;;;;;;;29.55;15.48;;;;;;;7.46;95.92;103911.16;1985810;29;44412;-68
2021/12/17 00:05:44;;;;;;;28.23;14.70;;;;;;;7.47;95.93;103901.41;1986443;29;45158;-67
2021/12/17 00:06:47;;;;;;;27.13;14.43;;;;;;;7.46;96.01;103897.81;1985470;29;43306;-68
2021/12/17 00:07:49;;;;;;;29.08;15.55;;;;;;;7.47;95.55;103901.41;1980797;29;45442;-67
2021/12/17 00:08:55;;;;;;;30.85;15.95;;;;;;;7.45;95.78;103910.25;1985031;29;45185;-67
2021/12/17 00:10:01;;;;;;;26.52;15.45;;;;;;;7.45;96.14;103907.59;1985279;29;42315;-67
2021/12/17 00:11:05;;;;;;;29.40;15.95;;;;;;;7.47;96.04;103907.66;1985513;29;45927;-68
2021/12/17 00:12:12;;;;;;;32.33;16.20;;;;;;;7.45;95.58;103904.94;1986133;29;45636;-67
2021/12/17 00:13:15;;;;;;;30.63;14.40;;;;;;;7.46;96.01;103903.16;1985576;29;45465;-67
2021/12/17 00:14:26;;;;;;;31.55;16.30;;;;;;;7.45;95.89;103901.38;1985280;29;46539;-68
2021/12/17 00:15:28;;;;;;;29.42;15.10;;;;;;;7.45;95.78;103902.25;1986147;29;43078;-68
2021/12/17 00:16:35;;;;;;;29.60;14.82;;;;;;;7.44;95.84;103904.84;1985877;29;45533;-68
2021/12/17 00:17:47;;;;;;;31.08;15.18;;;;;;;7.44;95.43;103904.84;1986104;29;43119;-67
2021/12/17 00:40:29;;;;;;;19.38;10.85;;;;;;;7.34;95.96;103924.00;1985421;29;45938;-67
2021/12/17 00:48:36;;;;;;;24.05;13.52;;;;;;;7.30;95.30;103940.75;1977812;29;44472;-69
2021/12/17 00:49:43;;;;;;;19.23;12.25;;;;;;;7.29;95.48;103942.50;1985513;29;45477;-68
2021/12/17 00:51:57;;;;;;;18.50;12.13;;;;;;;7.30;95.60;103951.41;1985149;29;41325;-69
2021/12/17 00:53:01;;;;;;;16.30;11.75;;;;;;;7.29;95.43;103946.94;1985498;29;44311;-69
2021/12/17 00:54:17;;;;;;;17.77;12.75;;;;;;;7.26;95.75;103951.28;1985623;29;44442;-69
2021/12/17 00:55:19;;;;;;;21.10;13.63;;;;;;;7.27;96.21;103946.88;1986979;29;20051;-69
2021/12/17 00:56:20;;;;;;;17.98;13.30;;;;;;;7.28;96.06;103958.44;1985500;29;46502;-69
2021/12/17 00:57:35;;;;;;;20.42;13.63;;;;;;;7.26;96.22;103953.03;1986026;29;20940;-68
2021/12/17 00:58:36;;;;;;;21.65;15.52;;;;;;;7.26;95.77;103951.28;1978828;29;45003;-68
2021/12/17 00:59:43;;;;;;;21.67;14.43;;;;;;;7.28;96.02;103958.44;1986287;29;20047;-67
2021/12/17 01:00:46;;;;;;;23.65;16.00;;;;;;;7.26;96.33;103953.94;1985495;29;45165;-68
2021/12/17 01:01:51;;;;;;;20.02;14.77;;;;;;;7.27;96.22;103949.53;1985320;29;40871;-68
2021/12/17 01:02:53;;;;;;;19.88;15.70;;;;;;;7.25;96.08;103943.25;1986585;29;26520;-68
2021/12/17 01:03:55;;;;;;;21.30;15.60;;;;;;;7.25;95.49;103954.81;1985996;29;20123;-68
2021/12/17 01:05:04;;;;;;;23.60;16.83;;;;;;;7.23;96.07;103956.50;1977727;29;30891;-68
2021/12/17 01:06:06;;;;;;;23.52;17.27;;;;;;;7.26;96.27;103951.28;1965608;29;20060;-69
2021/12/17 01:07:10;;;;;;;25.02;18.40;;;;;;;7.25;96.20;103948.56;1972130;29;20906;-68
2021/12/17 01:08:11;;;;;;;23.67;18.83;;;;;;;7.24;95.92;103947.63;1985415;29;28686;-68
2021/12/17 01:09:16;;;;;;;25.42;16.95;;;;;;;7.26;95.85;103951.28;1986127;29;20074;-69
2021/12/17 01:10:33;;;;;;;25.88;20.05;;;;;;;7.24;95.60;103944.06;1986033;29;20078;-69
2021/12/17 01:11:57;;;;;;;22.48;17.60;;;;;;;7.22;95.57;103944.00;1978104;29;20056;-69
2021/12/17 01:13:11;;;;;;;23.40;18.17;;;;;;;7.25;95.74;103949.47;1980213;29;20051;-67
2021/12/17 01:14:19;;;;;;;24.88;19.00;;;;;;;7.23;96.10;103940.50;1979026;29;20052;-67
2021/12/17 01:15:31;;;;;;;25.20;19.08;;;;;;;7.24;96.14;103946.75;1986092;29;20174;-68
2021/12/17 01:16:47;;;;;;;24.42;18.58;;;;;;;7.24;95.80;103947.63;1978313;29;20048;-67
2021/12/17 01:18:08;;;;;;;24.95;19.05;;;;;;;7.25;95.92;103944.16;1983953;29;20928;-67
2021/12/17 01:19:45;;;;;;;26.83;20.20;;;;;;;7.23;95.72;103940.50;1976603;29;20056;-68
2021/12/17 01:24:12;;;;;;;;;;;;;;;7.23;95.89;103944.91;1983238;29;20086;-69
2021/12/17 01:25:36;;;;;;;27.65;19.90;;;;;;;7.19;96.09;103949.22;1985984;29;20029;-68
2021/12/17 01:36:31;;;;;;;31.92;21.02;;;;;;;7.19;96.09;103951.88;1986946;29;20055;-68
2021/12/17 01:38:35;;;;;;;32.90;22.30;;;;;;;7.20;96.42;103955.47;1987226;29;20035;-68
2021/12/17 01:41:03;;;;;;;32.67;22.02;;;;;;;7.22;96.23;103953.78;1987126;29;36975;-68
2021/12/17 01:42:05;;;;;;;33.58;23.55;;;;;;;7.21;96.59;103952.88;1986466;29;39752;-68
2021/12/17 01:43:11;;;;;;;31.77;20.95;;;;;;;7.21;96.37;103946.59;1988093;29;20046;-68
2021/12/17 01:44:16;;;;;;;27.90;19.90;;;;;;;7.20;96.52;103940.38;1987010;29;20051;-68
2021/12/17 01:45:19;;;;;;;29.10;19.83;;;;;;;7.19;96.36;103937.66;1980066;29;20079;-68
2021/12/17 01:46:28;;;;;;;27.65;19.45;;;;;;;7.20;96.46;103942.16;1979209;29;37547;-69
2021/12/17 01:47:32;;;;;;;31.33;20.30;;;;;;;7.19;96.73;103946.53;1980363;29;22379;-68
2021/12/17 01:49:22;;;;;;;30.02;20.67;;;;;;;7.18;96.59;103935.84;1986451;29;36567;-68
2021/12/17 01:56:16;;;;;;;27.75;17.45;;;;;;;7.18;96.27;103942.09;1986872;29;33370;-68
2021/12/17 02:00:18;;;;;;;27.23;17.95;;;;;;;7.16;96.80;103949.13;1981612;29;27245;-68
2021/12/17 02:01:19;;;;;;;27.00;17.90;;;;;;;7.17;96.79;103948.25;1986400;29;43798;-69
2021/12/17 02:02:24;;;;;;;29.20;18.60;;;;;;;7.16;96.47;103954.44;1986639;29;20062;-69
2021/12/17 02:03:26;;;;;;;26.60;17.65;;;;;;;7.17;96.42;103952.69;1986957;29;33773;-69
2021/12/17 02:04:31;;;;;;;28.67;18.42;;;;;;;7.16;96.63;103951.78;1986628;29;20866;-69
2021/12/17 02:05:35;;;;;;;30.23;19.00;;;;;;;7.14;96.86;103958.81;1986648;29;36181;-69
2021/12/17 02:06:38;;;;;;;27.23;17.70;;;;;;;7.13;96.42;103961.41;1986550;29;34896;-69
2021/12/17 02:07:42;;;;;;;28.30;18.13;;;;;;;7.12;96.72;103955.13;1985725;29;45722;-68
2021/12/17 02:08:46;;;;;;;22.08;15.88;;;;;;;7.10;96.47;103953.28;1979319;29;30995;-67
2021/12/17 02:11:45;;;;;;;23.13;14.45;;;;;;;7.11;96.32;103957.78;1994446;29;20095;-68
2021/12/17 02:28:44;;;;;;;17.73;10.90;;;;;;;7.07;96.20;103949.66;1989211;29;20044;-69
2021/12/17 02:30:52;;;;;;;12.63;7.20;;;;;;;7.03;95.79;103944.13;1988805;29;25982;-68
2021/12/17 02:32:01;;;;;;;7.88;5.50;;;;;;;6.99;95.63;103951.09;1986430;29;20055;-68
2021/12/17 02:33:03;;;;;;;8.82;5.53;;;;;;;6.96;95.11;103944.72;1987051;29;30966;-68
2021/12/17 02:35:40;;;;;;;10.82;6.10;;;;;;;6.99;96.00;103944.84;1985703;29;44699;-67
2021/12/17 02:36:46;;;;;;;9.23;5.07;;;;;;;6.99;95.72;103940.44;1986456;29;20105;-68
2021/12/17 02:37:53;;;;;;;11.38;5.28;;;;;;;6.98;95.69;103938.63;1986515;29;20889;-68
2021/12/17 02:39:41;;;;;;;8.68;5.35;;;;;;;6.95;95.57;103938.50;1988224;29;20128;-67
2021/12/17 02:45:51;;;;;;;8.88;4.90;;;;;;;6.94;95.49;103938.44;1974153;29;20055;-68
2021/12/17 02:46:52;;;;;;;8.20;5.53;;;;;;;6.92;95.25;103932.13;1978392;29;20062;-67
2021/12/17 02:48:09;;;;;;;7.05;4.55;;;;;;;6.93;95.63;103933.94;1978394;29;38646;-67
2021/12/17 02:49:11;;;;;;;9.13;4.57;;;;;;;6.92;95.48;103927.72;1988208;29;29279;-68
2021/12/17 02:50:12;;;;;;;6.65;4.55;;;;;;;6.94;95.42;103920.69;1986873;29;20124;-67
2021/12/17 02:51:15;;;;;;;7.72;4.50;;;;;;;6.93;95.66;103928.59;1978580;29;43745;-67
2021/12/17 02:52:19;;;;;;;6.75;4.07;;;;;;;6.95;95.72;103927.84;1986602;29;20259;-68
2021/12/17 02:53:23;;;;;;;7.22;3.83;;;;;;;6.93;95.14;103923.28;1992753;29;45846;-68
2021/12/17 02:54:28;;;;;;;7.55;4.57;;;;;;;6.93;95.44;103925.94;1986163;29;20182;-69
2021/12/17 02:55:30;;;;;;;4.93;3.10;;;;;;;6.93;95.33;103928.59;1986008;29;44336;-68
2021/12/17 02:56:32;;;;;;;6.82;3.63;;;;;;;6.92;95.39;103932.13;1986161;29;44982;-68
2021/12/17 02:57:35;;;;;;;7.45;4.00;;;;;;;6.88;95.16;103929.34;1985735;29;41002;-68
2021/12/17 02:58:38;;;;;;;5.70;3.03;;;;;;;6.91;94.98;103935.63;1978017;29;41028;-68
2021/12/17 02:59:40;;;;;;;4.80;3.10;;;;;;;6.92;95.02;103937.47;1979680;29;20862;-68
2021/12/17 03:00:44;;;;;;;6.05;3.10;;;;;;;6.90;95.12;103936.50;1979489;29;20890;-68
2021/12/17 03:01:48;;;;;;;5.07;3.20;;;;;;;6.90;94.96;103939.16;1985658;29;45331;-68
2021/12/17 03:02:55;;;;;;;5.53;2.95;;;;;;;6.89;94.87;103938.22;1979780;29;20044;-68
2021/12/17 03:03:57;;;;;;;4.90;2.78;;;;;;;6.90;95.13;103940.06;1979026;29;44598;-68
2021/12/17 03:04:59;;;;;;;5.78;2.80;;;;;;;6.90;94.88;103948.06;1979206;29;45975;-68
2021/12/17 03:06:01;;;;;;;4.18;2.60;;;;;;;6.90;95.07;103941.81;1978227;29;44198;-68
2021/12/17 03:07:03;;;;;;;4.68;2.60;;;;;;;6.90;94.95;103944.47;1978349;29;31281;-68
2021/12/17 03:08:12;;;;;;;5.65;2.58;;;;;;;6.92;95.29;103940.13;1992835;29;43675;-67
2021/12/17 03:09:13;;;;;;;6.78;3.30;;;;;;;6.89;95.33;103940.88;1985679;29;45840;-68
2021/12/17 03:10:16;;;;;;;3.83;2.03;;;;;;;6.92;94.98;103942.78;1986173;29;23067;-68
2021/12/17 03:11:17;;;;;;;5.65;2.95;;;;;;;6.92;95.33;103942.78;1986191;29;44139;-68
2021/12/17 03:12:31;;;;;;;6.15;3.30;;;;;;;6.93;94.96;103939.25;1986074;29;20082;-67
2021/12/17 03:13:36;;;;;;;4.70;2.30;;;;;;;6.91;94.63;103936.56;1987220;29;20063;-68
2021/12/17 03:14:46;;;;;;;4.57;2.42;;;;;;;6.91;95.25;103936.56;1985314;29;48121;-67
2021/12/17 03:15:57;;;;;;;3.97;2.38;;;;;;;6.91;95.36;103922.31;1987546;29;21012;-68
2021/12/17 03:17:08;;;;;;;5.47;2.75;;;;;;;6.90;95.22;103929.41;1985809;29;44802;-68
2021/12/17 03:18:43;;;;;;;4.40;2.50;;;;;;;6.88;95.13;103924.00;1979003;29;45417;-68
2021/12/17 03:23:43;;;;;;;5.35;2.80;;;;;;;6.83;95.52;103933.56;1986607;29;23458;-68
2021/12/17 03:24:51;;;;;;;6.25;2.85;;;;;;;6.83;95.66;103927.34;1985941;29;20233;-68
2021/12/17 03:25:54;;;;;;;5.90;3.03;;;;;;;6.84;95.21;103930.06;1985763;29;20188;-68
2021/12/17 03:26:56;;;;;;;6.28;3.03;;;;;;;6.85;95.47;103929.19;1985837;29;20132;-67
2021/12/17 03:27:58;;;;;;;4.82;2.53;;;;;;;6.84;95.63;103930.06;1985947;29;20043;-68
2021/12/17 03:29:06;;;;;;;5.00;2.42;;;;;;;6.86;95.59;103939.03;1986014;29;20040;-68
2021/12/17 03:30:12;;;;;;;4.25;2.30;;;;;;;6.85;95.69;103930.97;1978805;29;20852;-68
2021/12/17 03:31:16;;;;;;;8.15;3.25;;;;;;;6.84;96.00;103929.16;1980888;29;20055;-68
2021/12/17 03:32:18;;;;;;;6.10;2.95;;;;;;;6.83;95.84;103928.22;1986363;29;20206;-68
2021/12/17 03:33:21;;;;;;;8.75;3.28;;;;;;;6.82;95.86;103921.13;1985529;29;46354;-67
2021/12/17 03:34:23;;;;;;;7.13;3.00;;;;;;;6.84;95.78;103919.41;1986215;29;43673;-68
2021/12/17 03:35:27;;;;;;;6.55;2.78;;;;;;;6.84;95.89;103921.19;1986264;29;20939;-68
2021/12/17 03:36:29;;;;;;;6.05;3.20;;;;;;;6.84;95.98;103916.75;1985525;29;42664;-68
2021/12/17 03:37:31;;;;;;;7.85;3.10;;;;;;;6.84;95.75;103918.50;1986768;29;20055;-68
2021/12/17 03:38:33;;;;;;;6.80;3.00;;;;;;;6.83;96.11;103914.03;1986047;29;20051;-68
2021/12/17 03:39:37;;;;;;;7.47;3.15;;;;;;;6.81;96.04;103911.28;1993602;29;20989;-68
2021/12/17 03:40:41;;;;;;;8.38;3.58;;;;;;;6.81;96.24;103910.38;1987018;29;20961;-68
2021/12/17 03:41:52;;;;;;;9.18;3.33;;;;;;;6.79;96.17;103909.44;1986237;29;20174;-68
2021/12/17 03:43:11;;;;;;;8.18;3.50;;;;;;;6.80;96.25;103911.22;1988640;29;20051;-68
2021/12/17 03:44:14;;;;;;;9.45;4.05;;;;;;;6.78;96.51;103916.47;1986013;29;20095;-68
2021/12/17 03:45:42;;;;;;;10.00;4.05;;;;;;;6.79;96.36;103920.06;1986281;29;20185;-68
2021/12/17 03:46:50;;;;;;;9.13;4.07;;;;;;;6.77;96.81;103917.34;1985841;29;20856;-68
2021/12/17 03:47:53;;;;;;;10.68;3.63;;;;;;;6.79;96.79;103922.75;1985868;29;20047;-69
2021/12/17 03:48:56;;;;;;;10.43;4.13;;;;;;;6.74;96.57;103925.19;1979012;29;20055;-67
2021/12/17 03:49:58;;;;;;;8.73;4.13;;;;;;;6.74;96.51;103926.97;1979412;29;20044;-68
2021/12/17 03:51:00;;;;;;;9.60;3.83;;;;;;;6.74;96.63;103925.19;1985971;29;20064;-69
2021/12/17 03:52:06;;;;;;;11.60;4.28;;;;;;;6.74;96.63;103925.19;1978828;29;20047;-68
2021/12/17 03:53:11;;;;;;;8.43;4.03;;;;;;;6.75;96.72;103927.03;1986916;29;20161;-68
2021/12/17 03:54:14;;;;;;;11.45;4.45;;;;;;;6.75;96.60;103919.03;1985577;29;20094;-67
2021/12/17 03:55:16;;;;;;;10.15;3.85;;;;;;;6.75;96.52;103918.13;1985407;29;44774;-68
2021/12/17 03:56:24;;;;;;;9.32;3.80;;;;;;;6.75;96.77;103923.44;1993620;29;20259;-68
2021/12/17 03:57:26;;;;;;;8.63;3.50;;;;;;;6.74;96.44;103927.88;1993578;29;20044;-68
2021/12/17 03:58:29;;;;;;;10.98;4.00;;;;;;;6.76;96.82;103931.50;1978561;29;20047;-68
2021/12/17 03:59:33;;;;;;;8.13;3.53;;;;;;;6.74;96.60;103913.66;1979432;29;20050;-68
2021/12/17 04:00:37;;;;;;;7.13;3.35;;;;;;;6.75;96.73;103921.72;1985840;29;41326;-68
2021/12/17 04:01:42;;;;;;;11.95;4.20;;;;;;;6.74;96.73;103917.22;1979028;29;20059;-68
2021/12/17 04:02:47;;;;;;;7.03;3.60;;;;;;;6.71;97.01;103911.75;1978511;29;32794;-68
2021/12/17 04:04:05;;;;;;;8.07;3.40;;;;;;;6.73;97.03;103915.41;1981071;29;20067;-68
2021/12/17 04:05:08;;;;;;;8.77;3.85;;;;;;;6.73;96.97;103917.16;1986579;29;20055;-68
2021/12/17 04:06:14;;;;;;;10.82;4.75;;;;;;;6.70;96.50;103912.63;1992611;29;20059;-68
2021/12/17 04:07:34;;;;;;;8.57;3.55;;;;;;;6.72;96.82;103912.69;1986272;29;20039;-68
2021/12/17 04:08:48;;;;;;;9.13;4.07;;;;;;;6.73;96.89;103920.75;1986472;29;20647;-68
2021/12/17 04:09:58;;;;;;;;;;;;;;;6.71;96.85;103910.84;1986874;29;20051;-68
2021/12/17 04:11:05;;;;;;;10.13;3.60;;;;;;;6.72;97.07;103918.91;1986226;29;19945;-68
2021/12/17 04:12:15;;;;;;;10.50;4.65;;;;;;;6.70;97.08;103917.94;1987119;29;20135;-68
2021/12/17 04:13:38;;;;;;;9.13;3.92;;;;;;;6.72;97.10;103913.59;1985863;29;20051;-67
2021/12/17 04:14:45;;;;;;;7.43;3.90;;;;;;;6.73;96.85;103915.41;1978944;29;20055;-68
2021/12/17 04:15:54;;;;;;;9.35;3.92;;;;;;;6.72;97.13;103918.91;1986200;29;20155;-68
2021/12/17 04:17:02;;;;;;;10.82;4.53;;;;;;;6.73;96.98;103911.81;1985516;29;27800;-68
2021/12/17 04:18:07;;;;;;;11.38;4.78;;;;;;;6.72;96.97;103920.66;1986424;29;25627;-68
2021/12/17 04:19:11;;;;;;;11.18;5.13;;;;;;;6.71;97.22;103921.50;1986171;29;20058;-68
2021/12/17 04:20:18;;;;;;;11.23;4.45;;;;;;;6.70;97.17;103925.94;1979142;29;20869;-67
2021/12/17 04:21:22;;;;;;;8.65;3.97;;;;;;;6.69;97.12;103919.72;1986584;29;20177;-67
2021/12/17 04:22:23;;;;;;;8.38;3.70;;;;;;;6.73;97.03;103914.47;1985905;29;26296;-68
2021/12/17 04:23:25;;;;;;;8.57;4.10;;;;;;;6.72;97.36;103916.25;1985030;29;42934;-67
2021/12/17 04:24:27;;;;;;;7.15;3.67;;;;;;;6.71;97.34;103924.16;1985300;29;32787;-67
2021/12/17 04:25:30;;;;;;;9.13;4.03;;;;;;;6.71;97.07;103919.75;1978867;29;20056;-67
2021/12/17 04:26:34;;;;;;;7.60;3.45;;;;;;;6.71;97.01;103913.50;1978424;29;20044;-67
2021/12/17 04:27:44;;;;;;;8.70;3.58;;;;;;;6.72;96.98;103916.25;1979686;29;20926;-68
2021/12/17 04:28:49;;;;;;;7.97;3.90;;;;;;;6.71;96.82;103918.84;1978680;29;20477;-67
2021/12/17 04:29:57;;;;;;;9.95;4.43;;;;;;;6.72;97.38;103924.22;1985715;29;20059;-67
2021/12/17 04:30:59;;;;;;;8.05;3.78;;;;;;;6.70;97.13;103917.94;1979252;29;20052;-69
2021/12/17 04:32:03;;;;;;;10.18;4.30;;;;;;;6.69;96.69;103927.69;1985922;29;20035;-69
2021/12/17 04:33:07;;;;;;;8.80;4.28;;;;;;;6.71;97.49;103918.84;1992653;29;20155;-68
2021/12/17 04:34:12;;;;;;;7.55;3.33;;;;;;;6.66;96.91;103921.34;1985934;29;20956;-67
2021/12/17 04:35:14;;;;;;;8.07;3.50;;;;;;;6.68;97.09;103927.63;1986232;29;21038;-67
2021/12/17 04:36:27;;;;;;;7.55;3.65;;;;;;;6.68;96.98;103923.19;1985617;29;20063;-68
2021/12/17 04:37:29;;;;;;;7.78;3.30;;;;;;;6.69;96.99;103917.03;1978933;29;29781;-69
2021/12/17 04:38:36;;;;;;;8.35;3.90;;;;;;;6.71;97.29;103922.41;1985792;29;21008;-68
2021/12/17 04:39:38;;;;;;;7.35;3.80;;;;;;;6.68;97.05;103923.19;1986090;29;20046;-68
2021/12/17 04:40:43;;;;;;;7.22;3.13;;;;;;;6.69;96.95;103924.09;1992957;29;20994;-69
2021/12/17 04:42:12;;;;;;;6.60;3.05;;;;;;;6.70;97.10;103928.59;1986007;29;20074;-68
2021/12/17 04:43:38;;;;;;;4.18;2.22;;;;;;;6.71;97.13;103926.81;1988722;29;20051;-68
2021/12/17 04:44:48;;;;;;;7.50;2.78;;;;;;;6.72;97.04;103920.66;1989939;29;20047;-69
2021/12/17 04:46:04;;;;;;;7.28;2.83;;;;;;;6.73;97.02;103919.81;1989598;29;20181;-68
2021/12/17 04:57:56;;;;;;;7.75;2.72;;;;;;;6.74;96.90;103922.53;1985666;29;20150;-69
2021/12/17 04:58:58;;;;;;;5.68;2.40;;;;;;;6.75;97.42;103913.72;1979080;29;21007;-69
2021/12/17 05:00:06;;;;;;;7.85;2.83;;;;;;;6.76;97.09;103914.63;1985900;29;20099;-68
2021/12/17 05:01:14;;;;;;;5.95;2.60;;;;;;;6.74;96.76;103914.56;1984573;29;20043;-69
2021/12/17 05:02:21;;;;;;;6.95;2.60;;;;;;;6.75;96.98;103924.38;1985850;29;20047;-69
2021/12/17 05:03:29;;;;;;;9.13;2.83;;;;;;;6.75;96.97;103915.44;1979234;29;20056;-69
2021/12/17 05:04:31;;;;;;;8.70;3.28;;;;;;;6.74;97.39;103916.31;1978508;29;20048;-69
2021/12/17 05:05:33;;;;;;;7.30;2.58;;;;;;;6.75;97.17;103919.03;1985133;29;40312;-69
2021/12/17 05:06:43;;;;;;;6.63;2.63;;;;;;;6.74;97.22;103919.88;1986919;29;20091;-69
2021/12/17 05:07:52;;;;;;;11.05;3.55;;;;;;;6.73;97.13;103918.09;1987357;29;20055;-69
2021/12/17 05:09:01;;;;;;;9.27;2.97;;;;;;;6.74;97.44;103919.88;1988442;29;20563;-68
2021/12/17 05:18:11;;;;;;;10.35;2.75;;;;;;;6.77;97.22;103924.44;1985352;29;20044;-68
2021/12/17 05:19:44;;;;;;;11.98;3.92;;;;;;;6.78;97.20;103932.47;1980812;29;20054;-69
2021/12/17 05:20:54;;;;;;;12.80;4.30;;;;;;;6.77;97.18;103917.34;1987214;29;20964;-69
2021/12/17 05:21:58;;;;;;;12.77;4.20;;;;;;;6.77;96.95;103914.69;1973112;29;20071;-68
2021/12/17 05:23:02;;;;;;;15.65;4.25;;;;;;;6.78;96.85;103918.25;1972425;29;20044;-69
2021/12/17 05:24:04;;;;;;;13.38;4.13;;;;;;;6.77;96.89;103912.03;1980282;29;20655;-69
2021/12/17 05:25:07;;;;;;;15.35;4.30;;;;;;;6.78;96.86;103913.81;1986733;29;20066;-69
2021/12/17 05:26:15;;;;;;;20.35;5.80;;;;;;;6.76;97.18;103904.88;1986236;29;29819;-68
2021/12/17 05:27:24;;;;;;;18.35;5.50;;;;;;;6.77;97.43;103911.13;1986625;29;20044;-68
2021/12/17 05:28:31;;;;;;;23.60;6.05;;;;;;;6.77;97.34;103925.34;1980353;29;20104;-68
2021/12/17 05:29:33;;;;;;;16.05;5.65;;;;;;;6.77;97.46;103919.13;1979781;29;20060;-69
2021/12/17 05:30:36;;;;;;;21.65;5.82;;;;;;;6.79;97.42;103928.06;1979490;29;20058;-68
2021/12/17 05:31:38;;;;;;;24.35;6.25;;;;;;;6.77;97.35;103928.00;1987014;29;20046;-69
2021/12/17 05:32:41;;;;;;;16.75;6.20;;;;;;;6.78;97.82;103928.91;1987076;29;20951;-68
2021/12/17 05:33:44;;;;;;;16.20;5.53;;;;;;;6.78;97.69;103923.56;1986833;29;20051;-68
2021/12/17 05:34:47;;;;;;;26.83;6.55;;;;;;;6.78;97.43;103919.16;1979855;29;20369;-68
2021/12/17 05:35:49;;;;;;;37.45;8.02;;;;;;;6.75;97.50;103924.38;1986246;29;45711;-69
2021/12/17 05:36:51;;;;;;;27.80;7.82;;;;;;;6.75;97.33;103924.38;1986983;29;20135;-68
2021/12/17 05:38:01;;;;;;;23.33;7.53;;;;;;;6.76;97.59;103926.16;1987808;29;20055;-69
2021/12/17 05:39:06;;;;;;;32.67;8.48;;;;;;;6.76;97.65;103928.84;1986821;29;20052;-69
2021/12/17 05:40:10;;;;;;;29.05;7.25;;;;;;;6.76;97.77;103934.16;1987385;29;20171;-68
2021/12/17 05:41:15;;;;;;;37.15;8.52;;;;;;;6.75;97.70;103929.69;1986931;29;20127;-69
2021/12/17 05:42:34;;;;;;;37.67;10.02;;;;;;;6.76;97.83;103935.91;1989004;29;20058;-69
2021/12/17 05:43:58;;;;;;;45.78;9.05;;;;;;;6.75;97.90;103935.03;1987031;29;20051;-69
2021/12/17 05:45:08;;;;;;;42.38;8.43;;;;;;;6.76;97.77;103928.84;1979673;29;20048;-68
2021/12/17 05:46:12;;;;;;;37.83;9.00;;;;;;;6.77;98.33;103932.44;1987979;29;20047;-69
2021/12/17 05:47:14;;;;;;;47.58;8.98;;;;;;;6.78;97.78;103927.13;1993677;29;20754;-68
2021/12/17 05:48:22;;;;;;;37.80;9.45;;;;;;;6.77;98.08;103933.31;1986898;29;20148;-69
2021/12/17 05:49:26;;;;;;;36.30;9.88;;;;;;;6.77;97.64;103929.75;1986967;29;20051;-69
2021/12/17 05:50:39;;;;;;;31.45;8.43;;;;;;;6.77;97.93;103933.31;1987542;29;20047;-69
2021/12/17 05:51:42;;;;;;;35.17;8.77;;;;;;;6.78;97.94;103927.13;1986107;29;20055;-69
2021/12/17 05:52:43;;;;;;;37.83;9.07;;;;;;;6.78;97.80;103918.25;1979513;29;20144;-69
2021/12/17 05:53:46;;;;;;;39.45;9.75;;;;;;;6.78;98.10;103918.25;1979325;29;20942;-69
2021/12/17 05:54:48;;;;;;;36.40;9.50;;;;;;;6.79;98.16;103928.06;1986631;29;20072;-69
2021/12/17 05:55:52;;;;;;;33.70;9.40;;;;;;;6.78;98.04;103932.47;1986478;29;20056;-69
2021/12/17 05:57:01;;;;;;;27.80;8.52;;;;;;;6.78;98.23;103932.47;1988364;29;20039;-69
2021/12/17 05:58:08;;;;;;;29.58;8.20;;;;;;;6.80;97.80;103943.19;1979131;29;20805;-68
2021/12/17 05:59:12;;;;;;;29.15;9.07;;;;;;;6.81;98.20;103939.69;1973500;29;20052;-68
2021/12/17 06:00:15;;;;;;;27.75;8.60;;;;;;;6.80;98.30;103933.47;1986926;29;20100;-68
2021/12/17 06:01:18;;;;;;;26.13;9.23;;;;;;;6.81;98.08;103918.38;1986318;29;44375;-67
2021/12/17 06:02:25;;;;;;;27.38;8.82;;;;;;;6.81;98.17;103924.59;1986914;29;20048;-68
2021/12/17 06:03:33;;;;;;;23.95;8.30;;;;;;;6.82;98.05;103931.75;1987319;29;20047;-68
2021/12/17 06:04:40;;;;;;;25.20;8.60;;;;;;;6.82;97.97;103928.16;1986826;29;21035;-68
2021/12/17 06:05:42;;;;;;;25.90;9.27;;;;;;;6.82;98.09;103936.16;1979448;29;20179;-69
2021/12/17 06:06:47;;;;;;;23.17;7.55;;;;;;;6.82;98.13;103931.75;1986512;29;20046;-68
2021/12/17 06:07:50;;;;;;;25.38;8.20;;;;;;;6.83;98.13;103938.00;1986782;29;20055;-68
2021/12/17 06:08:52;;;;;;;25.77;8.57;;;;;;;6.83;98.13;103938.00;1979488;29;20044;-68
2021/12/17 06:09:59;;;;;;;25.70;8.68;;;;;;;6.83;97.78;103936.22;1985897;29;37999;-68
2021/12/17 06:11:05;;;;;;;24.38;8.18;;;;;;;6.83;97.97;103938.88;1980578;29;20056;-68
2021/12/17 06:12:08;;;;;;;21.80;7.57;;;;;;;6.83;98.51;103930.91;1987212;29;20110;-68
2021/12/17 06:13:10;;;;;;;27.48;9.02;;;;;;;6.85;97.60;103941.63;1994295;29;20899;-68
2021/12/17 06:14:14;;;;;;;23.85;8.23;;;;;;;6.85;98.11;103931.88;1986729;29;20654;-68
2021/12/17 06:15:19;;;;;;;25.38;7.97;;;;;;;6.86;97.63;103943.44;1979521;29;20044;-68
2021/12/17 06:16:21;;;;;;;24.90;8.43;;;;;;;6.85;97.82;103937.19;1979687;29;20047;-68
2021/12/17 06:17:25;;;;;;;23.70;8.63;;;;;;;6.85;98.19;103936.28;1978302;29;44388;-68
2021/12/17 06:18:29;;;;;;;22.27;8.95;;;;;;;6.84;97.79;103935.41;1985800;29;45112;-68
2021/12/17 06:19:31;;;;;;;22.05;8.15;;;;;;;6.86;97.57;103933.69;1986607;29;28740;-68
2021/12/17 06:20:33;;;;;;;21.70;7.90;;;;;;;6.86;97.89;103941.69;1986527;29;20156;-68
2021/12/17 06:21:38;;;;;;;20.90;7.40;;;;;;;6.87;98.15;103934.59;1986880;29;20043;-68
2021/12/17 06:22:40;;;;;;;22.67;8.50;;;;;;;6.87;97.67;103942.59;1979459;29;20237;-68
2021/12/17 06:23:43;;;;;;;21.63;8.20;;;;;;;6.86;97.87;103941.69;1986990;29;20055;-68
2021/12/17 06:24:45;;;;;;;26.10;9.55;;;;;;;6.85;97.68;103931.88;1993900;29;35472;-68
2021/12/17 06:25:49;;;;;;;22.10;9.30;;;;;;;6.87;97.86;103937.25;1994126;29;20209;-68
2021/12/17 06:26:51;;;;;;;19.58;7.95;;;;;;;6.86;97.87;103941.69;1993885;29;20090;-68
2021/12/17 06:27:56;;;;;;;21.88;8.15;;;;;;;6.87;97.89;103940.84;1986825;29;20047;-68
2021/12/17 06:28:57;;;;;;;24.65;8.95;;;;;;;6.89;97.78;103943.56;1986063;29;44836;-68
2021/12/17 06:30:03;;;;;;;22.17;9.27;;;;;;;6.87;97.73;103938.19;1979566;29;20048;-68
2021/12/17 06:31:05;;;;;;;22.67;7.93;;;;;;;6.88;97.56;103939.09;1979034;29;43365;-67
2021/12/17 06:32:09;;;;;;;22.88;8.90;;;;;;;6.87;97.37;103946.19;1979456;29;20933;-68
2021/12/17 06:33:12;;;;;;;21.23;8.68;;;;;;;6.90;97.78;103947.16;1979245;29;20136;-68
2021/12/17 06:34:14;;;;;;;27.13;9.40;;;;;;;6.91;97.37;103947.22;1978944;29;20818;-68
2021/12/17 06:35:16;;;;;;;22.30;9.43;;;;;;;6.91;97.89;103946.28;1979407;29;20065;-69
2021/12/17 06:36:19;;;;;;;24.67;8.43;;;;;;;6.90;97.84;103948.06;1986731;29;20039;-68
2021/12/17 06:37:22;;;;;;;24.95;9.18;;;;;;;6.91;97.74;103952.53;1979208;29;20048;-68
2021/12/17 06:38:24;;;;;;;23.83;8.82;;;;;;;6.92;97.57;103950.78;1979108;29;20051;-67
2021/12/17 06:39:28;;;;;;;25.58;9.45;;;;;;;6.91;97.57;103957.88;1994018;29;20073;-68
2021/12/17 06:40:30;;;;;;;22.52;9.02;;;;;;;6.92;97.60;103953.44;1978842;29;21006;-68
2021/12/17 06:41:32;;;;;;;20.77;9.20;;;;;;;6.91;97.65;103954.28;1979135;29;31868;-68
2021/12/17 06:42:34;;;;;;;24.35;9.55;;;;;;;6.92;97.35;103961.44;1978716;29;20156;-67
2021/12/17 06:43:39;;;;;;;26.30;9.95;;;;;;;6.91;97.39;103962.25;1986718;29;20058;-68
2021/12/17 06:44:47;;;;;;;23.63;9.20;;;;;;;6.93;97.73;103949.91;1986148;29;20078;-68
2021/12/17 06:45:57;;;;;;;23.80;9.40;;;;;;;6.93;97.53;103956.16;1985649;29;41757;-68
2021/12/17 06:47:13;;;;;;;22.38;9.30;;;;;;;6.93;97.38;103949.91;1986596;29;20075;-68
2021/12/17 06:48:17;;;;;;;23.25;9.90;;;;;;;6.93;97.18;103955.25;1980585;29;20036;-68
2021/12/17 06:59:47;;;;;;;20.75;9.20;;;;;;;6.96;97.07;103947.38;1987044;29;20051;-67
2021/12/17 07:10:42;;;;;;;17.17;7.85;;;;;;;6.98;97.12;103953.69;1987511;29;20039;-68
2021/12/17 07:17:52;;;;;;;24.27;10.68;;;;;;;6.98;96.94;103954.63;1988881;29;20116;-68
2021/12/17 07:29:50;;;;;;;24.35;9.30;;;;;;;6.99;96.83;103953.75;1988450;29;20189;-67